Freysville, Pennsylvania
Current Conditions -  °F | °C
As of 9:53 AM on Thursday 30 Oct 2014 (Local Time) from KTHV Reporting Station
Clear Clear  
Wind Chill: 50°   Ceiling: Unl
Heat Index: 50°   Visibility: 10mi
Dew Point: 39°   Wind: 7mph
Humidity: 66%   Direction: 280°W
Pressure: 30.06"   Gusts: NA
Location:  39.8974°N, 76.608°W
Report Text: KTHV 301353Z AUTO 28006KT 10SM CLR 10/04 A3006 RMK AO2 SLP182 T01000039
Loading
Personal Weather Stations






























Interactive Weather Map
Tropical Storm Tracking
New forecast layout! Learn more

10-Day Weather Forecast

Advertisements
Track Severe Weather on mobile